Latest Weather Observations for Thredbo Top Station

IDN60801

Issued at 9:03 pm EST Tuesday 28 June 2016 (issued every 30 minutes, with the page automatically refreshed every 10 minutes)

About weather observations | Map of weather stations | Latest weather observations for NSW | Other Formats
Station Details ID: 071032 Name: THREDBO AWS Lat: -36.49 Lon: 148.29 Height: 1957.0 m
Data from the previous 72 hours. | See also: Recent months at Thredbo Top Station
Date/Time
EST
Temp
°C
App
Temp
°C
Dew
Point
°C
Rel
Hum
%
Delta-T
°C
Wind Press
QNH
hPa
Press
MSL
hPa
Rain since
9am
mm
Dir  Spd
km/h
Gust
km/h
Spd
kts
Gust
kts
28/09:00pm -3.1 -10.1 -3.2 99 -0.1 W 24 33 13 18 1025.1 1027.6 0.0
28/08:30pm -2.7 -10.4 -2.8 99 -0.1 W 28 39 15 21 1024.8 1027.4 0.0
28/08:00pm -2.2 -9.8 -2.3 99 -0.1 WSW 28 39 15 21 1025.0 1027.5 0.0
28/07:30pm -2.4 -11.0 -2.5 99 -0.1 WSW 33 44 18 24 1025.0 1027.5 0.0
28/07:00pm -2.9 -9.5 -3.0 99 -0.1 W 22 30 12 16 1024.8 1027.4 0.0
28/06:30pm -2.8 -9.0 -2.9 99 -0.1 WSW 20 33 11 18 1024.3 1026.9 0.0
28/06:00pm -2.5 -8.6 -2.6 99 -0.1 WSW 20 28 11 15 1024.1 1026.6 0.0
28/05:30pm -2.5 -8.6 -2.6 99 -0.1 WSW 20 28 11 15 1023.7 1026.2 0.0
28/05:00pm -2.6 -9.9 -2.7 99 -0.1 WSW 26 37 14 20 1023.7 1026.2 0.0
28/04:30pm -2.5 -8.6 -2.6 99 -0.1 W 20 28 11 15 1023.5 1026.0 0.0
28/04:00pm -2.3 -8.4 -2.4 99 -0.1 WSW 20 30 11 16 1023.3 1025.7 0.0
28/03:30pm -2.3 -8.4 -2.4 99 -0.1 SW 20 32 11 17 1023.1 1025.6 0.0
28/03:00pm -2.3 -9.9 -2.4 99 -0.1 WSW 28 41 15 22 1022.8 1025.2 0.0
28/02:30pm -2.6 -9.9 -2.7 99 -0.1 WSW 26 35 14 19 1022.5 1025.0 0.0
28/02:00pm -3.4 -9.6 -3.5 99 -0.1 WSW 20 32 11 17 1022.3 1024.7 0.0
28/01:30pm -4.0 -10.7 -4.1 99 -0.1 WSW 22 32 12 17 1021.9 1024.3 0.0
28/01:00pm -4.0 -10.3 -4.1 99 -0.1 W 20 26 11 14 1021.9 1024.3 0.0
28/12:30pm -4.1 -10.4 -4.2 99 -0.2 W 20 26 11 14 1021.8 1024.2 0.0
28/12:00pm -4.1 -11.2 -4.2 99 -0.2 W 24 32 13 17 1021.9 1024.3 0.0
28/11:30am -4.3 -11.4 -4.4 99 -0.2 WSW 24 32 13 17 1022.0 1024.5 0.0
28/11:00am -4.7 -12.2 -4.8 99 -0.2 W 26 35 14 19 1022.0 1024.5 0.0
28/10:30am -4.9 -12.8 -5.0 99 -0.2 WSW 28 39 15 21 1021.8 1024.2 0.0
28/10:00am -5.3 -13.6 -5.4 99 -0.2 W 30 39 16 21 1021.7 1024.1 0.0
28/09:30am -5.3 -13.3 -5.4 99 -0.2 W 28 37 15 20 1021.4 1023.8 0.0
28/09:00am -5.3 -13.7 -5.6 98 -0.1 W 30 41 16 22 1021.1 1023.5 0.0
28/08:30am -5.5 -13.9 -5.8 98 -0.1 W 30 41 16 22 1020.7 1023.1 0.0
28/08:00am -5.7 -14.5 -6.0 98 -0.1 W 32 46 17 25 1020.2 1022.6 0.0
28/07:30am -5.7 -13.7 -6.0 98 -0.1 W 28 44 15 24 1019.9 1022.2 0.0
28/07:00am -5.9 -13.2 -6.2 98 -0.1 W 24 33 13 18 1019.6 1021.9 0.0
28/06:30am -6.0 -13.3 -6.3 98 -0.2 WSW 24 32 13 17 1019.4 1021.7 0.0
28/06:00am -6.1 -14.2 -6.4 98 -0.2 WSW 28 35 15 19 1018.8 1021.0 0.0
28/05:30am -6.5 -13.1 -6.9 97 -0.1 W 20 32 11 17 1018.3 1020.5 0.0
28/05:00am -6.4 -12.0 -6.8 97 -0.1 W 15 22 8 12 1018.4 1020.7 0.0
28/04:30am -6.4 -13.4 -6.7 98 -0.2 WNW 22 30 12 16 1018.2 1020.4 0.0
28/04:00am -5.8 -12.3 -6.1 98 -0.1 W 20 26 11 14 1018.0 1020.3 0.0
28/03:30am -5.0 -13.3 -5.3 98 -0.1 WNW 30 35 16 19 1017.8 1020.0 0.0
28/03:00am -4.7 -13.6 -5.0 98 -0.1 WNW 33 43 18 23 1017.4 1019.6 0.0
28/02:30am -4.4 -14.7 -4.5 99 -0.2 WNW 41 48 22 26 1017.2 1019.4 0.0
28/02:00am -4.1 -13.7 -4.2 99 -0.2 W 37 48 20 26 1017.1 1019.3 0.0
28/01:30am -3.9 -11.7 -4.0 99 -0.1 W 28 48 15 26 1017.1 1019.3 0.0
28/01:14am -3.9 -12.1 -4.0 99 -0.1 W 30 48 16 26 1017.3 1019.5 0.0
28/01:00am -4.1 -12.7 -4.2 99 -0.2 W 32 44 17 24 1017.2 1019.4 0.0
28/12:30am -4.1 -12.3 -4.2 99 -0.2 W 30 41 16 22 1017.2 1019.4 0.0
28/12:00am -3.8 -10.8 -3.9 99 -0.1 W 24 33 13 18 1017.3 1019.5 0.0
 
Date/Time
EST
Temp
°C
App
Temp
°C
Dew
Point
°C
Rel
Hum
%
Delta-T
°C
Wind Press
QNH
hPa
Press
MSL
hPa
Rain since
9am
mm
Dir  Spd
km/h
Gust
km/h
Spd
kts
Gust
kts
27/11:30pm -3.7 -10.4 -3.8 99 -0.1 W 22 33 12 18 1017.6 1019.8 0.0
27/11:00pm -3.8 -9.1 -3.9 99 -0.1 WSW 15 24 8 13 1017.4 1019.6 0.0
27/10:30pm -3.8 -10.8 -3.9 99 -0.1 WSW 24 30 13 16 1017.4 1019.6 0.0
27/10:00pm -3.7 -9.8 -3.8 99 -0.1 WSW 19 26 10 14 1017.3 1019.5 0.0
27/09:30pm -3.9 -11.3 -4.0 99 -0.1 WSW 26 33 14 18 1017.2 1019.4 0.0
27/09:00pm -3.8 -10.8 -3.9 99 -0.1 WSW 24 33 13 18 1017.0 1019.1 0.0
27/08:30pm -3.5 -10.5 -3.6 99 -0.1 WSW 24 35 13 19 1016.6 1018.8 0.0
27/08:00pm -3.4 -10.4 -3.5 99 -0.1 WSW 24 32 13 17 1017.0 1019.1 0.0
27/07:30pm -3.5 -10.1 -3.6 99 -0.1 SW 22 32 12 17 1016.7 1018.9 0.0
27/07:00pm -3.6 -9.9 -3.7 99 -0.1 SW 20 28 11 15 1016.5 1018.6 0.0
27/06:30pm -3.8 -10.5 -3.9 99 -0.1 SW 22 30 12 16 1016.1 1018.2 0.0
27/06:00pm -4.0 -12.6 -4.1 99 -0.1 SW 32 39 17 21 1015.7 1017.9 0.0
27/05:30pm -4.1 -11.9 -4.2 99 -0.2 SW 28 35 15 19 1015.1 1017.2 0.0
27/05:00pm -4.1 -12.3 -4.2 99 -0.2 SW 30 35 16 19 1014.9 1017.0 0.0
27/04:30pm -4.3 -12.9 -4.4 99 -0.2 WSW 32 41 17 22 - - 0.0
27/04:00pm -4.4 -13.0 -4.5 99 -0.2 WSW 32 41 17 22 - - 0.0
27/03:30pm -4.8 -13.1 -5.1 98 -0.1 WSW 30 37 16 20 - - 0.0
27/03:00pm -4.9 -12.5 -5.2 98 -0.1 WSW 26 33 14 18 - - 0.0
27/02:30pm -5.2 -12.0 -5.5 98 -0.1 WSW 22 30 12 16 - - 0.0
27/02:00pm -5.7 -14.5 -6.0 98 -0.1 WSW 32 39 17 21 - - 0.0
27/01:30pm -5.7 -13.0 -6.0 98 -0.1 WSW 24 32 13 17 - - 0.0
27/01:00pm -5.9 -13.9 -6.2 98 -0.1 WSW 28 33 15 18 - - 0.0
27/12:30pm -5.7 -13.3 -6.0 98 -0.1 WSW 26 33 14 18 - - 0.0
27/12:00pm -5.0 -12.6 -5.3 98 -0.1 WSW 26 33 14 18 - - 0.0
27/11:30am -4.2 -11.3 -4.3 99 -0.2 WSW 24 32 13 17 - - 0.0
27/11:00am -4.1 -10.2 -4.2 99 -0.2 WSW 19 24 10 13 - - 0.0
27/10:30am -4.3 -10.5 -4.4 99 -0.2 WSW 19 24 10 13 - - 0.0
27/10:00am -4.6 -10.8 -4.7 99 -0.2 W 19 22 10 12 - - 0.0
27/09:30am -4.9 -11.3 -5.2 98 -0.1 W 20 24 11 13 - - 0.0
27/09:00am -5.3 -11.8 -5.6 98 -0.1 W 20 22 11 12 - - 0.6
27/08:30am -5.9 -11.9 -6.2 98 -0.1 W 17 20 9 11 - - 0.6
27/08:00am -6.4 -13.0 -6.7 98 -0.2 W 20 26 11 14 - - 0.6
27/07:30am -6.3 -12.9 -6.6 98 -0.2 W 20 26 11 14 - - 0.6
27/07:00am -6.1 -12.5 -6.4 98 -0.2 W 19 24 10 13 - - 0.6
27/06:30am -6.1 -12.6 -6.4 98 -0.2 W 20 24 11 13 - - 0.6
27/06:00am -5.8 -13.1 -6.1 98 -0.1 WNW 24 26 13 14 - - 0.6
27/05:30am -5.5 -12.0 -5.8 98 -0.1 WNW 20 24 11 13 - - 0.6
27/05:00am -5.4 -11.9 -5.7 98 -0.1 WNW 20 26 11 14 - - 0.6
27/04:30am -5.4 -12.6 -5.7 98 -0.1 WNW 24 28 13 15 - - 0.6
27/04:00am -5.3 -12.1 -5.6 98 -0.1 WNW 22 26 12 14 - - 0.6
27/03:30am -5.2 -12.0 -5.5 98 -0.1 WNW 22 28 12 15 - - 0.6
27/03:00am -5.1 -12.7 -5.4 98 -0.1 WNW 26 33 14 18 - - 0.6
27/02:30am -5.2 -13.2 -5.5 98 -0.1 WNW 28 33 15 18 - - 0.6
27/02:00am -5.2 -13.2 -5.5 98 -0.1 WNW 28 32 15 17 - - 0.6
27/01:30am -5.3 -13.3 -5.6 98 -0.1 WNW 28 33 15 18 - - 0.6
27/01:00am -5.3 -13.3 -5.6 98 -0.1 WNW 28 32 15 17 - - 0.6
27/12:30am -5.3 -12.9 -5.6 98 -0.1 WNW 26 32 14 17 - - 0.6
27/12:00am -5.3 -12.9 -5.6 98 -0.1 WNW 26 32 14 17 - - 0.6
 
Date/Time
EST
Temp
°C
App
Temp
°C
Dew
Point
°C
Rel
Hum
%
Delta-T
°C
Wind Press
QNH
hPa
Press
MSL
hPa
Rain since
9am
mm
Dir  Spd
km/h
Gust
km/h
Spd
kts
Gust
kts
26/11:30pm -5.4 -13.0 -5.7 98 -0.1 WNW 26 32 14 17 - - 0.6
26/11:00pm -5.8 -13.5 -6.1 98 -0.1 WNW 26 32 14 17 - - 0.6
26/10:30pm -6.1 -8.8 -6.4 98 -0.2 CALM 0 0 0 0 - - 0.6
26/10:00pm -6.2 -9.0 -6.5 98 -0.2 CALM 0 0 0 0 - - 0.6
26/09:30pm -6.0 -8.7 -6.3 98 -0.2 CALM 0 0 0 0 - - 0.6
26/09:00pm -5.9 -8.6 -6.2 98 -0.1 CALM 0 0 0 0 - - 0.6
26/08:30pm -5.9 -11.5 -6.2 98 -0.1 W 15 19 8 10 - - 0.6
26/08:00pm -5.8 -12.3 -6.1 98 -0.1 WNW 20 22 11 12 - - 0.6
26/07:30pm -5.8 -11.4 -6.1 98 -0.1 WNW 15 20 8 11 - - 0.6
26/07:00pm -5.6 -8.3 -5.9 98 -0.1 CALM 0 0 0 0 - - 0.6
26/06:30pm -5.6 -10.8 -5.9 98 -0.1 - 13 24 7 13 1014.3 1016.3 0.6
26/06:00pm -5.4 -11.9 -5.7 98 -0.1 WNW 20 26 11 14 - - 0.6
26/05:30pm -5.3 -13.3 -5.6 98 -0.1 WNW 28 32 15 17 - - 0.6
26/05:00pm -5.2 -13.2 -5.5 98 -0.1 WNW 28 32 15 17 - - 0.6
26/04:30pm -4.9 -12.8 -5.0 99 -0.2 WNW 28 33 15 18 - - 0.6
26/04:00pm -4.5 -8.2 -4.6 99 -0.2 NW 6 24 3 13 - - 0.6
26/03:30pm -4.4 -7.3 -4.5 99 -0.2 NW 2 7 1 4 1014.3 1016.3 0.6
26/03:00pm -4.5 -7.1 -4.6 99 -0.2 CALM 0 4 0 2 1014.4 1016.5 0.6
26/02:30pm -4.3 -10.6 -4.4 99 -0.2 WNW 20 28 11 15 1014.5 1016.6 0.6
26/02:00pm -4.2 -7.9 -4.3 99 -0.2 NW 6 11 3 6 1014.8 1016.8 0.6
26/01:30pm -4.1 -8.7 -4.2 99 -0.2 NNW 11 17 6 9 1015.0 1017.1 0.6
26/01:00pm -4.1 -9.9 -4.2 99 -0.2 NNW 17 22 9 12 1015.4 1017.5 0.6
26/12:30pm -4.0 -8.6 -4.1 99 -0.1 N 11 17 6 9 1015.9 1018.0 0.6
26/12:00pm -4.0 -7.8 -4.1 99 -0.1 N 7 15 4 8 1015.9 1018.0 0.6
26/11:30am -4.1 -10.2 -4.2 99 -0.2 N 19 22 10 12 1016.8 1019.0 0.0
26/11:00am -4.6 -11.7 -4.7 99 -0.2 NNW 24 30 13 16 1017.3 1019.5 0.0
26/10:30am -5.2 -13.2 -5.5 98 -0.1 NW 28 32 15 17 1017.6 1019.8 0.0
26/10:00am -5.8 -14.2 -6.1 98 -0.1 NNW 30 35 16 19 1017.7 1019.9 0.0
26/09:30am -6.1 -12.6 -6.4 98 -0.2 NNW 20 24 11 13 1017.8 1020.0 0.0
26/09:00am -6.0 -11.2 -6.3 98 -0.2 SSW 13 15 7 8 1017.9 1020.1 0.0
26/08:30am -6.4 -11.6 -6.7 98 -0.2 SSW 13 13 7 7 1017.9 1020.1 0.0
26/08:00am -6.7 -11.6 -7.0 98 -0.2 SSW 11 13 6 7 1017.9 1020.1 0.0
26/07:30am -7.1 -11.7 -7.5 97 -0.2 SSW 9 11 5 6 1017.7 1019.9 0.0
26/07:00am -7.2 -11.8 -7.7 96 -0.1 SSW 9 11 5 6 1017.6 1019.8 0.0
26/06:30am -7.1 -11.1 -7.6 96 -0.1 SSW 6 9 3 5 1017.6 1019.8 0.0
26/06:00am -6.7 -9.9 -7.1 97 -0.1 SSW 2 7 1 4 1017.3 1019.5 0.0
26/05:30am -6.4 -9.2 -6.8 97 -0.1 CALM 0 0 0 0 1017.2 1019.4 0.0
26/05:00am -6.3 -9.5 -6.7 97 -0.1 SSW 2 6 1 3 1017.1 1019.3 0.0
26/04:30am -5.9 -8.6 -6.2 98 -0.1 CALM 0 4 0 2 1017.0 1019.1 0.0
26/04:00am -5.5 -8.2 -5.8 98 -0.1 CALM 0 0 0 0 1017.1 1019.3 0.0
26/03:30am -5.2 -7.9 -5.5 98 -0.1 CALM 0 4 0 2 1017.3 1019.5 0.0
26/03:00am -5.1 -8.5 -5.4 98 -0.1 SSW 4 7 2 4 1017.8 1020.0 0.0
26/02:30am -4.9 -7.9 -5.2 98 -0.1 SSW 2 7 1 4 1017.8 1020.0 0.0
26/02:00am -5.0 -8.4 -5.3 98 -0.1 SSW 4 11 2 6 1017.4 1019.6 0.0
26/01:30am -5.1 -8.1 -5.4 98 -0.1 SSW 2 9 1 5 1017.4 1019.6 0.0
26/01:00am -5.3 -9.3 -5.6 98 -0.1 SSW 7 15 4 8 1017.8 1020.0 0.0
26/12:30am -5.4 -9.4 -5.7 98 -0.1 SSW 7 15 4 8 1017.8 1020.0 0.0
26/12:00am -5.5 -9.3 -5.8 98 -0.1 SSW 6 13 3 7 1017.7 1019.9 0.0
 
Date/Time
EST
Temp
°C
App
Temp
°C
Dew
Point
°C
Rel
Hum
%
Delta-T
°C
Wind Press
QNH
hPa
Press
MSL
hPa
Rain since
9am
mm
Dir  Spd
km/h
Gust
km/h
Spd
kts
Gust
kts
25/11:30pm -5.5 -8.6 -5.8 98 -0.1 SSW 2 7 1 4 1017.8 1020.0 0.0
25/11:00pm -5.6 -9.6 -5.9 98 -0.1 SSW 7 15 4 8 1018.0 1020.3 0.0
25/10:30pm -5.6 -10.0 -5.9 98 -0.1 SSW 9 19 5 10 1018.2 1020.4 0.0
25/10:00pm -5.6 -10.0 -5.9 98 -0.1 SSW 9 19 5 10 1018.0 1020.3 0.0
25/09:30pm -5.6 -10.8 -5.9 98 -0.1 SSW 13 24 7 13 1017.9 1020.1 0.0

Other Formats:

Comma delimited format used in spreadsheet applications
http://www.bom.gov.au/fwo/IDN60801/IDN60801.95909.axf

JavaScript Object Notation format (JSON) in row-major order
http://www.bom.gov.au/fwo/IDN60801/IDN60801.95909.json